Aviation Digital Data Service (ADDS)

Output produced by METARs form (2339 UTC 25 February 2018)
found at http://www.aviationweather.gov/adds/metars/
 
MZBZ 252300Z 12007KT 9999 FEW024 27/22 A2996 Q1014 NOSIG
TAF MZBZ 252100Z 2600/2624 10010KT 9999 SCT022